createdAt,value
2022-09-12T00:02:26.467Z,96104.16
2022-09-12T00:05:13.408Z,96102.50
2022-09-12T00:08:00.950Z,96100.81
2022-09-12T00:10:47.875Z,96091.69
2022-09-12T00:13:38.384Z,96093.56
2022-09-12T00:16:30.858Z,96093.94
2022-09-12T00:19:18.821Z,96090.66
2022-09-12T00:22:05.746Z,96087.00
2022-09-12T00:24:52.641Z,96078.31
2022-09-12T00:27:39.564Z,96071.50
2022-09-12T00:30:26.494Z,96082.75
2022-09-12T00:33:15.084Z,96088.09
2022-09-12T00:36:10.449Z,96081.31
2022-09-12T00:38:57.507Z,96075.13
2022-09-12T00:41:44.902Z,96079.97
2022-09-12T00:44:31.761Z,96073.59
2022-09-12T00:47:37.914Z,96081.56
2022-09-12T00:50:25.854Z,96077.59
2022-09-12T00:53:13.044Z,96070.00
2022-09-12T00:56:00.392Z,96067.09
2022-09-12T00:59:00.264Z,96067.94
2022-09-12T01:01:50.665Z,96072.06
2022-09-12T01:04:40.651Z,96066.88
2022-09-12T01:07:28.299Z,96062.16
2022-09-12T01:10:15.913Z,96061.88
2022-09-12T01:13:05.458Z,96065.69
2022-09-12T01:15:52.788Z,96055.66
2022-09-12T01:18:49.029Z,96054.31
2022-09-12T01:22:06.079Z,96042.31
2022-09-12T01:25:21.014Z,96040.91
2022-09-12T01:28:07.887Z,96043.81
2022-09-12T01:31:20.794Z,96049.94
2022-09-12T01:34:18.051Z,96042.00
2022-09-12T01:37:15.549Z,96046.59
2022-09-12T01:40:21.717Z,96043.06
2022-09-12T01:43:31.929Z,96040.81
2022-09-12T01:46:29.670Z,96038.56
2022-09-12T01:49:28.855Z,96032.84
2022-09-12T01:52:25.829Z,96029.78
2022-09-12T01:55:21.081Z,96029.84
2022-09-12T01:58:38.108Z,96019.56
2022-09-12T02:01:29.763Z,96028.44
2022-09-12T02:04:24.104Z,96019.97
2022-09-12T02:07:20.481Z,96020.84
2022-09-12T02:10:18.101Z,96013.66
2022-09-12T02:13:15.854Z,96011.13
2022-09-12T02:16:22.590Z,96014.53
2022-09-12T02:19:15.863Z,96010.19
2022-09-12T02:22:05.184Z,96005.59
2022-09-12T02:24:56.970Z,96003.28
2022-09-12T02:27:55.309Z,96000.03
2022-09-12T02:30:52.325Z,96000.97
2022-09-12T02:33:48.957Z,95999.19
2022-09-12T02:36:57.760Z,95999.03
2022-09-12T02:39:45.604Z,96009.13
2022-09-12T02:42:32.969Z,96007.09
2022-09-12T02:45:20.433Z,96001.28
2022-09-12T02:48:13.706Z,96003.41
2022-09-12T02:51:02.533Z,96001.63
2022-09-12T02:53:49.670Z,96003.09
2022-09-12T02:56:41.137Z,95992.03
2022-09-12T02:59:28.501Z,95991.13
2022-09-12T03:02:32.364Z,95988.78
2022-09-12T03:05:27.126Z,95992.72
2022-09-12T03:08:28.872Z,95994.91
2022-09-12T03:11:37.243Z,95997.72
2022-09-12T03:14:35.702Z,95993.25
2022-09-12T03:17:40.043Z,95996.41
2022-09-12T03:20:52.217Z,95990.66
2022-09-12T03:23:51.561Z,95983.38
2022-09-12T03:26:47.641Z,95996.88
2022-09-12T03:29:36.981Z,95996.31
2022-09-12T03:32:43.896Z,95992.75
2022-09-12T03:35:30.934Z,95992.59
2022-09-12T03:38:18.637Z,95996.44
2022-09-12T03:41:05.732Z,95995.78
2022-09-12T03:43:52.776Z,95996.72
2022-09-12T03:46:39.694Z,96001.34
2022-09-12T03:49:26.653Z,95989.06
2022-09-12T03:52:13.612Z,95997.38
2022-09-12T03:55:00.645Z,95991.34
2022-09-12T03:57:47.543Z,96001.97
2022-09-12T04:00:34.426Z,95993.97
2022-09-12T04:03:21.307Z,95996.81
2022-09-12T04:06:11.036Z,95995.41
2022-09-12T04:08:58.632Z,95996.00
2022-09-12T04:11:45.534Z,96000.06
2022-09-12T04:14:32.548Z,95997.81
2022-09-12T04:17:19.433Z,95989.63
2022-09-12T04:20:07.000Z,95991.91
2022-09-12T04:22:53.955Z,95990.88
2022-09-12T04:25:40.812Z,95992.50
2022-09-12T04:28:29.148Z,96000.50
2022-09-12T04:31:20.782Z,95999.41
2022-09-12T04:34:07.829Z,95999.84
2022-09-12T04:36:54.720Z,95998.22
2022-09-12T04:39:41.676Z,95995.59
2022-09-12T04:42:29.925Z,95987.38
2022-09-12T04:45:16.940Z,95985.47
2022-09-12T04:48:04.001Z,95986.59
2022-09-12T04:50:51.029Z,95986.59
2022-09-12T04:53:38.627Z,95983.81
2022-09-12T04:56:26.617Z,95980.41
2022-09-12T04:59:15.776Z,95989.06
2022-09-12T05:02:02.770Z,95990.09
2022-09-12T05:04:49.715Z,95986.63
2022-09-12T05:07:36.758Z,95988.66
2022-09-12T05:10:23.951Z,95993.16
2022-09-12T05:13:10.847Z,95989.53
2022-09-12T05:15:59.728Z,95997.53
2022-09-12T05:18:47.326Z,95998.16
2022-09-12T05:21:34.511Z,95998.81
2022-09-12T05:24:21.705Z,95997.34
2022-09-12T05:27:08.766Z,96001.53
2022-09-12T05:29:55.748Z,96009.16
2022-09-12T05:32:42.638Z,96016.50
2022-09-12T05:35:29.546Z,96018.31
2022-09-12T05:38:16.623Z,96016.16
2022-09-12T05:41:17.071Z,96016.81
2022-09-12T05:44:06.817Z,96016.16
2022-09-12T05:46:53.849Z,96009.72
2022-09-12T05:49:40.935Z,96006.66
2022-09-12T05:52:27.924Z,96011.75
2022-09-12T05:55:14.948Z,96018.59
2022-09-12T05:58:01.974Z,96021.63
2022-09-12T06:00:50.197Z,96017.94
2022-09-12T06:03:41.333Z,96014.78
2022-09-12T06:06:30.247Z,96022.28
2022-09-12T06:09:17.755Z,96022.88
2022-09-12T06:12:05.081Z,96019.59
2022-09-12T06:14:52.434Z,96009.09
2022-09-12T06:17:39.688Z,96005.50
2022-09-12T06:20:26.640Z,96003.94
2022-09-12T06:23:13.631Z,96010.16
2022-09-12T06:26:00.871Z,96001.88
2022-09-12T06:28:48.060Z,95991.75
2022-09-12T06:31:37.219Z,95990.44
2022-09-12T06:34:24.494Z,95997.03
2022-09-12T06:37:11.490Z,95991.59
2022-09-12T06:39:58.891Z,95993.50
2022-09-12T06:42:45.840Z,95993.63
2022-09-12T06:45:32.717Z,96005.63
2022-09-12T06:48:20.155Z,95999.97
2022-09-12T06:51:11.799Z,96009.88
2022-09-12T06:53:59.035Z,96018.16
2022-09-12T06:56:46.108Z,96016.09
2022-09-12T06:59:32.996Z,95999.28
2022-09-12T07:02:20.188Z,96007.75
2022-09-12T07:05:07.794Z,95975.25
2022-09-12T07:07:54.936Z,95983.16
2022-09-12T07:10:41.988Z,96006.22
2022-09-12T07:13:28.932Z,95978.50
2022-09-12T07:16:19.685Z,95985.66
2022-09-12T07:19:08.444Z,96005.47
2022-09-12T07:21:58.701Z,95984.19
2022-09-12T07:24:46.057Z,95949.00
2022-09-12T07:27:33.265Z,95965.41
2022-09-12T07:30:20.256Z,95969.63
2022-09-12T07:33:07.188Z,95965.63
2022-09-12T07:35:54.737Z,95962.69
2022-09-12T07:38:42.607Z,95952.00
2022-09-12T07:41:32.856Z,95961.91
2022-09-12T07:44:19.774Z,95981.84
2022-09-12T07:47:06.812Z,95994.22
2022-09-12T07:49:53.841Z,95958.41
2022-09-12T07:52:40.780Z,95945.91
2022-09-12T07:55:27.639Z,95948.91
2022-09-12T07:58:14.524Z,95950.09
2022-09-12T08:01:05.902Z,95958.53
2022-09-12T08:04:00.255Z,95931.28
2022-09-12T08:06:47.177Z,95927.59
2022-09-12T08:09:34.177Z,95946.97
2022-09-12T08:12:21.232Z,95954.75
2022-09-12T08:15:08.701Z,95941.13
2022-09-12T08:17:55.716Z,95941.34
2022-09-12T08:20:43.342Z,95956.72
2022-09-12T08:23:30.649Z,95968.63
2022-09-12T08:26:17.703Z,95967.69
2022-09-12T08:29:05.081Z,95950.19
2022-09-12T08:31:57.006Z,95967.53
2022-09-12T08:34:44.199Z,95963.69
2022-09-12T08:37:31.862Z,95984.16
2022-09-12T08:40:19.065Z,95981.97
2022-09-12T08:43:24.825Z,95991.63
2022-09-12T08:46:22.675Z,96001.41
2022-09-12T08:49:14.129Z,96013.88
2022-09-12T08:52:21.491Z,96016.41
2022-09-12T08:55:26.584Z,96001.41
2022-09-12T08:58:20.288Z,96001.28
2022-09-12T09:01:35.691Z,96001.84
2022-09-12T09:04:34.474Z,95990.88
2022-09-12T09:07:43.150Z,95997.34
2022-09-12T09:10:35.166Z,95997.53
2022-09-12T09:13:52.589Z,95979.16
2022-09-12T09:16:45.180Z,95974.31
2022-09-12T09:19:40.860Z,95960.69
2022-09-12T09:22:45.794Z,95940.91
2022-09-12T09:25:58.214Z,95921.50
2022-09-12T09:28:52.687Z,95935.03
2022-09-12T09:31:39.812Z,95932.00
2022-09-12T09:34:31.622Z,95928.97
2022-09-12T09:37:34.104Z,95922.75
2022-09-12T09:40:46.462Z,95919.97
2022-09-12T09:43:33.604Z,95923.13
2022-09-12T09:46:20.613Z,95922.06
2022-09-12T09:49:12.047Z,95913.75
2022-09-12T09:52:01.012Z,95912.81
2022-09-12T09:54:55.210Z,95906.47
2022-09-12T09:57:44.952Z,95915.13
2022-09-12T10:00:34.712Z,95889.31
2022-09-12T10:03:54.116Z,95901.94
2022-09-12T10:06:41.795Z,95906.75
2022-09-12T10:09:36.381Z,95913.00
2022-09-12T10:12:29.460Z,95903.81
2022-09-12T10:15:26.596Z,95901.88
2022-09-12T10:18:34.543Z,95895.28
2022-09-12T10:21:43.583Z,95904.69
2022-09-12T10:24:48.739Z,95889.66
2022-09-12T10:27:36.133Z,95885.00
2022-09-12T10:30:28.297Z,95870.59
2022-09-12T10:33:15.653Z,95873.25
2022-09-12T10:36:03.728Z,95883.19
2022-09-12T10:38:53.999Z,95880.09
2022-09-12T10:41:41.694Z,95882.16
2022-09-12T10:44:34.503Z,95894.06
2022-09-12T10:47:24.351Z,95898.66
2022-09-12T10:50:43.538Z,95888.53
2022-09-12T10:53:48.816Z,95889.94
2022-09-12T10:57:00.114Z,95879.44
2022-09-12T11:00:07.027Z,95891.03
2022-09-12T11:03:15.384Z,95878.91
2022-09-12T11:06:02.444Z,95863.63
2022-09-12T11:09:15.533Z,95859.81
2022-09-12T11:12:17.373Z,95862.53
2022-09-12T11:15:11.086Z,95862.66
2022-09-12T11:18:51.867Z,95865.19
2022-09-12T11:22:11.744Z,95858.97
2022-09-12T11:25:28.007Z,95838.97
2022-09-12T11:28:42.095Z,95851.97
2022-09-12T11:32:10.832Z,95843.28
2022-09-12T11:35:24.544Z,95859.53
2022-09-12T11:38:19.075Z,95873.38
2022-09-12T11:41:11.650Z,95858.81
2022-09-12T11:44:06.960Z,95850.44
2022-09-12T11:46:54.108Z,95854.41
2022-09-12T11:49:47.219Z,95856.91
2022-09-12T11:52:38.927Z,95834.03
2022-09-12T11:55:32.717Z,95843.78
2022-09-12T11:58:25.506Z,95855.72
2022-09-12T12:01:21.090Z,95841.56
2022-09-12T12:04:17.967Z,95837.72
2022-09-12T12:07:08.508Z,95834.69
2022-09-12T12:09:57.017Z,95833.06
2022-09-12T12:12:44.127Z,95809.16
2022-09-12T12:15:31.904Z,95827.44
2022-09-12T12:18:27.267Z,95834.44
2022-09-12T12:21:32.150Z,95829.91
2022-09-12T12:24:28.996Z,95833.63
2022-09-12T12:27:50.384Z,95810.97
2022-09-12T12:30:40.974Z,95811.16
2022-09-12T12:33:27.857Z,95806.41
2022-09-12T12:36:40.363Z,95831.88
2022-09-12T12:39:33.300Z,95815.00
2022-09-12T12:42:35.533Z,95808.91
2022-09-12T12:45:25.422Z,95820.25
2022-09-12T12:48:16.922Z,95811.91
2022-09-12T12:51:51.600Z,95775.78
2022-09-12T12:54:41.282Z,95772.31
2022-09-12T12:57:56.369Z,95779.66
2022-09-12T13:00:46.201Z,95765.56
2022-09-12T13:03:34.494Z,95762.78
2022-09-12T13:06:41.014Z,95780.88
2022-09-12T13:09:40.449Z,95774.09
2022-09-12T13:12:35.695Z,95770.28
2022-09-12T13:15:51.332Z,95771.78
2022-09-12T13:18:49.617Z,95767.19
2022-09-12T13:21:36.526Z,95757.78
2022-09-12T13:24:24.172Z,95747.72
2022-09-12T13:27:18.479Z,95760.97
2022-09-12T13:30:14.400Z,95752.44
2022-09-12T13:33:27.275Z,95742.31
2022-09-12T13:36:55.903Z,95724.69
2022-09-12T13:39:49.870Z,95735.31
2022-09-12T13:42:37.227Z,95739.66
2022-09-12T13:45:27.581Z,95736.56
2022-09-12T13:48:22.052Z,95730.84
2022-09-12T13:51:22.925Z,95724.50
2022-09-12T13:54:22.536Z,95736.91
2022-09-12T13:57:27.460Z,95738.94
2022-09-12T14:00:19.511Z,95735.22
2022-09-12T14:03:54.753Z,95737.59
2022-09-12T14:06:51.728Z,95736.75
2022-09-12T14:09:43.976Z,95744.25
2022-09-12T14:12:40.748Z,95735.00
2022-09-12T14:15:31.449Z,95731.66
2022-09-12T14:18:36.302Z,95724.59
2022-09-12T14:21:30.464Z,95718.16
2022-09-12T14:24:17.514Z,95707.53
2022-09-12T14:27:04.967Z,95712.84
2022-09-12T14:30:32.117Z,95721.94
2022-09-12T14:33:20.926Z,95712.97
2022-09-12T14:36:18.340Z,95721.91
2022-09-12T14:39:15.181Z,95700.38
2022-09-12T14:42:18.806Z,95687.66
2022-09-12T14:45:17.207Z,95694.91
2022-09-12T14:48:04.417Z,95691.44
2022-09-12T14:50:53.358Z,95690.69
2022-09-12T14:53:48.959Z,95703.81
2022-09-12T14:56:57.543Z,95695.16
2022-09-12T14:59:44.484Z,95689.56
2022-09-12T15:02:31.818Z,95678.78
2022-09-12T15:05:21.976Z,95682.34
2022-09-12T15:08:15.969Z,95678.84
2022-09-12T15:11:06.542Z,95667.16
2022-09-12T15:13:53.653Z,95661.53
2022-09-12T15:16:41.175Z,95683.31
2022-09-12T15:19:28.982Z,95685.47
2022-09-12T15:22:25.395Z,95681.97
2022-09-12T15:25:13.672Z,95676.78
2022-09-12T15:28:00.849Z,95667.44
2022-09-12T15:30:50.547Z,95675.81
2022-09-12T15:33:37.718Z,95671.22
2022-09-12T15:36:25.647Z,95680.78
2022-09-12T15:39:13.350Z,95678.50
2022-09-12T15:42:00.356Z,95678.75
2022-09-12T15:44:47.323Z,95682.13
2022-09-12T15:47:34.378Z,95674.50
2022-09-12T15:50:21.459Z,95676.53
2022-09-12T15:53:15.364Z,95688.19
2022-09-12T15:56:02.612Z,95687.56
2022-09-12T15:58:58.830Z,95681.88
2022-09-12T16:01:47.214Z,95672.66
2022-09-12T16:04:34.565Z,95676.47
2022-09-12T16:07:21.722Z,95684.69
2022-09-12T16:10:13.719Z,95674.78
2022-09-12T16:13:00.866Z,95683.31
2022-09-12T16:15:48.198Z,95683.63
2022-09-12T16:18:35.206Z,95679.53
2022-09-12T16:21:22.145Z,95684.81
2022-09-12T16:24:09.112Z,95688.44
2022-09-12T16:27:00.900Z,95679.63
2022-09-12T16:29:48.331Z,95683.19
2022-09-12T16:32:35.759Z,95682.81
2022-09-12T16:35:22.710Z,95690.44
2022-09-12T16:38:09.929Z,95684.47
2022-09-12T16:41:04.601Z,95685.78
2022-09-12T16:43:52.132Z,95684.69
2022-09-12T16:46:39.131Z,95686.63
2022-09-12T16:49:26.075Z,95682.34
2022-09-12T16:52:16.608Z,95677.78
2022-09-12T16:55:03.764Z,95678.16
2022-09-12T16:57:50.950Z,95676.63
2022-09-12T17:00:38.255Z,95683.94
2022-09-12T17:03:25.181Z,95692.50
2022-09-12T17:06:14.469Z,95691.38
2022-09-12T17:09:03.759Z,95698.66
2022-09-12T17:11:52.670Z,95700.97
2022-09-12T17:14:40.085Z,95700.81
2022-09-12T17:17:27.069Z,95698.50
2022-09-12T17:20:14.033Z,95708.09
2022-09-12T17:23:01.067Z,95707.22
2022-09-12T17:25:49.683Z,95700.72
2022-09-12T17:28:37.633Z,95700.47
2022-09-12T17:31:24.679Z,95699.34
2022-09-12T17:34:14.639Z,95699.00
2022-09-12T17:37:01.682Z,95698.81
2022-09-12T17:39:49.103Z,95700.75
2022-09-12T17:42:36.260Z,95692.97
2022-09-12T17:45:23.387Z,95702.63
2022-09-12T17:48:11.433Z,95703.78
2022-09-12T17:50:59.344Z,95699.03
2022-09-12T17:53:46.315Z,95704.47
2022-09-12T17:56:35.347Z,95707.94
2022-09-12T17:59:24.794Z,95705.88
2022-09-12T18:02:13.245Z,95713.28
2022-09-12T18:05:00.386Z,95716.16
2022-09-12T18:07:47.302Z,95718.16
2022-09-12T18:10:34.164Z,95721.31
2022-09-12T18:13:21.246Z,95720.22
2022-09-12T18:16:11.354Z,95710.47
2022-09-12T18:19:01.459Z,95710.44
2022-09-12T18:21:48.406Z,95717.94
2022-09-12T18:24:36.081Z,95705.28
2022-09-12T18:27:23.137Z,95711.16
2022-09-12T18:30:21.141Z,95705.75
2022-09-12T18:33:08.777Z,95712.34
2022-09-12T18:35:55.848Z,95712.41
2022-09-12T18:38:43.003Z,95721.41
2022-09-12T18:41:30.656Z,95724.38
2022-09-12T18:44:17.599Z,95731.44
2022-09-12T18:47:04.760Z,95743.84
2022-09-12T18:49:51.734Z,95752.13
2022-09-12T18:52:38.771Z,95744.94
2022-09-12T18:55:25.844Z,95755.03
2022-09-12T18:58:12.778Z,95757.22
2022-09-12T19:00:59.965Z,95744.25
2022-09-12T19:03:47.451Z,95748.56
2022-09-12T19:06:40.364Z,95748.88
2022-09-12T19:09:27.352Z,95741.78
2022-09-12T19:12:14.341Z,95747.59
2022-09-12T19:15:01.311Z,95746.06
2022-09-12T19:17:48.256Z,95746.81
2022-09-12T19:20:37.355Z,95745.72
2022-09-12T19:23:24.355Z,95752.50
2022-09-12T19:26:13.902Z,95742.69
2022-09-12T19:29:02.970Z,95746.22
2022-09-12T19:31:49.998Z,95742.13
2022-09-12T19:34:37.007Z,95732.78
2022-09-12T19:37:24.220Z,95736.25
2022-09-12T19:40:11.206Z,95738.88
2022-09-12T19:42:58.143Z,95742.34
2022-09-12T19:45:48.369Z,95744.81
2022-09-12T19:48:35.707Z,95745.31
2022-09-12T19:51:24.179Z,95738.97
2022-09-12T19:54:11.261Z,95742.16
2022-09-12T19:56:58.433Z,95736.03
2022-09-12T19:59:46.187Z,95737.88
2022-09-12T20:02:33.253Z,95732.50
2022-09-12T20:05:20.969Z,95733.16
2022-09-12T20:08:08.001Z,95730.06
2022-09-12T20:10:57.195Z,95726.47
2022-09-12T20:13:45.396Z,95719.28
2022-09-12T20:16:33.432Z,95718.84
2022-09-12T20:19:20.620Z,95715.31
2022-09-12T20:22:07.558Z,95717.91
2022-09-12T20:24:54.426Z,95714.78
2022-09-12T20:27:41.306Z,95714.31
2022-09-12T20:30:28.176Z,95716.97
2022-09-12T20:33:15.073Z,95720.88
2022-09-12T20:36:13.969Z,95716.28
2022-09-12T20:39:02.574Z,95715.81
2022-09-12T20:41:49.929Z,95721.53
2022-09-12T20:44:36.890Z,95724.56
2022-09-12T20:47:23.855Z,95725.31
2022-09-12T20:50:12.326Z,95716.41
2022-09-12T20:53:01.313Z,95722.22
2022-09-12T20:55:54.259Z,95722.84
2022-09-12T20:58:44.068Z,95725.03
2022-09-12T21:01:32.348Z,95721.66
2022-09-12T21:04:19.468Z,95718.53
2022-09-12T21:07:06.570Z,95729.63
2022-09-12T21:09:54.311Z,95720.44
2022-09-12T21:12:41.222Z,95716.16
2022-09-12T21:15:28.403Z,95721.53
2022-09-12T21:18:15.535Z,95716.59
2022-09-12T21:21:03.252Z,95717.78
2022-09-12T21:23:55.308Z,95713.34
2022-09-12T21:26:42.260Z,95713.47
2022-09-12T21:29:29.111Z,95706.97
2022-09-12T21:32:16.206Z,95721.63
2022-09-12T21:35:05.238Z,95718.91
2022-09-12T21:37:53.183Z,95716.00
2022-09-12T21:40:40.182Z,95717.06
2022-09-12T21:43:27.103Z,95715.78
2022-09-12T21:46:14.111Z,95721.31
2022-09-12T21:49:01.089Z,95722.84
2022-09-12T21:51:48.066Z,95716.09
2022-09-12T21:54:37.767Z,95709.84
2022-09-12T21:57:24.744Z,95710.81
2022-09-12T22:00:15.673Z,95702.69
2022-09-12T22:03:04.954Z,95702.69
2022-09-12T22:05:57.302Z,95692.00
2022-09-12T22:08:44.252Z,95688.22
2022-09-12T22:11:31.419Z,95690.03
2022-09-12T22:14:18.405Z,95700.22
2022-09-12T22:17:06.061Z,95697.63
2022-09-12T22:19:52.912Z,95689.69
2022-09-12T22:22:58.517Z,95692.91
2022-09-12T22:25:45.606Z,95712.88
2022-09-12T22:28:32.801Z,95709.34
2022-09-12T22:31:20.026Z,95705.41
2022-09-12T22:34:07.396Z,95699.81
2022-09-12T22:36:54.320Z,95697.34
2022-09-12T22:39:41.313Z,95693.28
2022-09-12T22:42:31.220Z,95688.75
2022-09-12T22:45:19.176Z,95690.06
2022-09-12T22:48:09.031Z,95695.31
2022-09-12T22:50:56.409Z,95695.09
2022-09-12T22:53:43.422Z,95698.41
2022-09-12T22:56:30.280Z,95701.06
2022-09-12T22:59:17.362Z,95697.00
2022-09-12T23:02:05.210Z,95682.41
2022-09-12T23:04:52.454Z,95674.25
2022-09-12T23:07:40.112Z,95670.34
2022-09-12T23:10:27.139Z,95663.19
2022-09-12T23:13:14.105Z,95658.41
2022-09-12T23:16:03.542Z,95660.91
2022-09-12T23:18:50.976Z,95646.88
2022-09-12T23:21:37.849Z,95648.31
2022-09-12T23:24:24.788Z,95647.25
2022-09-12T23:27:11.715Z,95642.00
2022-09-12T23:29:58.580Z,95634.81
2022-09-12T23:32:45.463Z,95633.00
2022-09-12T23:35:32.325Z,95633.59
2022-09-12T23:38:19.221Z,95627.88
2022-09-12T23:41:06.442Z,95634.69
2022-09-12T23:43:53.791Z,95626.88
2022-09-12T23:46:40.682Z,95622.94
2022-09-12T23:49:27.573Z,95630.34
2022-09-12T23:52:14.489Z,95629.75
2022-09-12T23:55:01.404Z,95626.06
2022-09-12T23:57:48.381Z,95619.50
